This is the latest recevied weather packets stored in our database for station/object K1RFS. If no packets are shown the sender has not sent any weather packets the latest 10 day(s).
| Time | Temp. | Humidity | Pressure | Rain* | Wind** | Luminosity | Snow |
|---|---|---|---|---|---|---|---|
| 1777419118 | 13.33° C | 39% | 1005.4 hPa | 0 mm | - | 407 W/m² | - |
| 1777418817 | 12.22° C | 41% | 1005.4 hPa | 0 mm | - | 398 W/m² | - |
| 1777418514 | 11.11° C | 44% | 1005.3 hPa | 0 mm | - | 231 W/m² | - |
| 1777418210 | 11.11° C | 43% | 1005.3 hPa | 0 mm | - | 104 W/m² | - |
| 1777417906 | 11.11° C | 45% | 1005.2 hPa | 0 mm | - | 86 W/m² | - |
| 1777417603 | 11.11° C | 44% | 1005 hPa | 0 mm | - | 120 W/m² | - |
| 1777417298 | 11.11° C | 44% | 1005.3 hPa | 0 mm | - | 164 W/m² | - |
| 1777416995 | 11.67° C | 43% | 1005.3 hPa | 0 mm | - | 98 W/m² | - |
| 1777416690 | 11.67° C | 45% | 1005.5 hPa | 0 mm | - | 96 W/m² | - |
| 1777416386 | 11.67° C | 44% | 1005.4 hPa | 0 mm | - | 115 W/m² | - |
| 1777416086 | 11.67° C | 44% | 1005.2 hPa | 0 mm | - | 114 W/m² | - |
| 1777415781 | 12.22° C | 44% | 1005.3 hPa | 0 mm | - | 125 W/m² | - |
| 1777415477 | 12.22° C | 44% | 1005.4 hPa | 0 mm | - | 176 W/m² | - |
| 1777415173 | 11.11° C | 48% | 1005.5 hPa | 0 mm | - | 168 W/m² | - |
| 1777414868 | 11.67° C | 48% | 1005.5 hPa | 0 mm | - | 156 W/m² | - |
| 1777414562 | 12.22° C | 48% | 1005.5 hPa | 0 mm | - | 399 W/m² | - |
| 1777414262 | 11.67° C | 50% | 1005.2 hPa | 0 mm | - | 543 W/m² | - |
| 1777413957 | 11.11° C | 52% | 1005.4 hPa | 0 mm | - | 554 W/m² | - |
| 1777413653 | 10.56° C | 51% | 1005.6 hPa | 0 mm | - | 519 W/m² | - |
| 1777413349 | 10° C | 55% | 1005.7 hPa | 0 mm | - | 519 W/m² | - |
| 1777413045 | 9.44° C | 55% | 1006 hPa | 0 mm | - | 185 W/m² | - |
| 1777412740 | 10° C | 54% | 1005.7 hPa | 0 mm | - | 491 W/m² | - |
| 1777412438 | 9.44° C | 56% | 1006 hPa | 0 mm | - | 202 W/m² | - |
| 1777412137 | 10° C | 55% | 1005.7 hPa | 0 mm | - | 134 W/m² | - |
| 1777411833 | 10.56° C | 53% | 1005.7 hPa | 0 mm | - | 112 W/m² | - |
* Rain latest hour (hover to see other rain measurements)
** Current wind speed in m/s (hover to see current wind gust speed)